sensor_id;sensor_type;location;lat;lon;timestamp;pressure;altitude;pressure_sealevel;temperature
8362;BMP180;4218;48.326;14.304;2023-06-10T00:02:16;98031.00;;;13.90
8362;BMP180;4218;48.326;14.304;2023-06-10T00:04:42;98031.00;;;13.90
8362;BMP180;4218;48.326;14.304;2023-06-10T00:07:08;98034.00;;;14.00
8362;BMP180;4218;48.326;14.304;2023-06-10T00:09:36;98038.00;;;14.00
8362;BMP180;4218;48.326;14.304;2023-06-10T00:12:07;98037.00;;;14.10
8362;BMP180;4218;48.326;14.304;2023-06-10T00:14:33;98035.00;;;14.00
8362;BMP180;4218;48.326;14.304;2023-06-10T00:16:59;98027.00;;;13.90
8362;BMP180;4218;48.326;14.304;2023-06-10T00:19:25;98031.00;;;13.80
8362;BMP180;4218;48.326;14.304;2023-06-10T00:21:57;98031.00;;;13.80
8362;BMP180;4218;48.326;14.304;2023-06-10T00:24:23;98028.00;;;13.80
8362;BMP180;4218;48.326;14.304;2023-06-10T00:26:51;98038.00;;;13.90
8362;BMP180;4218;48.326;14.304;2023-06-10T00:29:16;98039.00;;;13.90
8362;BMP180;4218;48.326;14.304;2023-06-10T00:31:44;98044.00;;;13.90
8362;BMP180;4218;48.326;14.304;2023-06-10T00:34:15;98042.00;;;13.90
8362;BMP180;4218;48.326;14.304;2023-06-10T00:36:40;98037.00;;;13.90
8362;BMP180;4218;48.326;14.304;2023-06-10T00:39:06;98046.00;;;13.80
8362;BMP180;4218;48.326;14.304;2023-06-10T00:41:32;98045.00;;;13.70
8362;BMP180;4218;48.326;14.304;2023-06-10T00:43:59;98042.00;;;13.70
8362;BMP180;4218;48.326;14.304;2023-06-10T00:46:24;98046.00;;;13.80
8362;BMP180;4218;48.326;14.304;2023-06-10T00:48:52;98046.00;;;13.80
8362;BMP180;4218;48.326;14.304;2023-06-10T00:51:18;98043.00;;;13.80
8362;BMP180;4218;48.326;14.304;2023-06-10T00:53:44;98038.00;;;13.80
8362;BMP180;4218;48.326;14.304;2023-06-10T00:56:10;98035.00;;;13.80
8362;BMP180;4218;48.326;14.304;2023-06-10T00:58:35;98034.00;;;13.80
8362;BMP180;4218;48.326;14.304;2023-06-10T01:01:01;98036.00;;;13.70
8362;BMP180;4218;48.326;14.304;2023-06-10T01:03:27;98033.00;;;13.70
8362;BMP180;4218;48.326;14.304;2023-06-10T01:06:18;98029.00;;;13.80
8362;BMP180;4218;48.326;14.304;2023-06-10T01:09:00;98031.00;;;13.80
8362;BMP180;4218;48.326;14.304;2023-06-10T01:11:41;98030.00;;;13.80
8362;BMP180;4218;48.326;14.304;2023-06-10T01:14:09;98029.00;;;13.90
8362;BMP180;4218;48.326;14.304;2023-06-10T01:16:35;98027.00;;;13.90
8362;BMP180;4218;48.326;14.304;2023-06-10T01:19:02;98024.00;;;14.10
8362;BMP180;4218;48.326;14.304;2023-06-10T01:21:28;98024.00;;;14.00
8362;BMP180;4218;48.326;14.304;2023-06-10T01:23:56;98029.00;;;14.00
8362;BMP180;4218;48.326;14.304;2023-06-10T01:26:28;98031.00;;;14.00
8362;BMP180;4218;48.326;14.304;2023-06-10T01:29:19;98034.00;;;14.00
8362;BMP180;4218;48.326;14.304;2023-06-10T01:31:49;98022.00;;;13.90
8362;BMP180;4218;48.326;14.304;2023-06-10T01:34:17;98016.00;;;13.90
8362;BMP180;4218;48.326;14.304;2023-06-10T01:36:48;98022.00;;;14.00
8362;BMP180;4218;48.326;14.304;2023-06-10T01:39:15;98024.00;;;14.00
8362;BMP180;4218;48.326;14.304;2023-06-10T01:41:42;98025.00;;;14.00
8362;BMP180;4218;48.326;14.304;2023-06-10T01:44:08;98018.00;;;14.00
8362;BMP180;4218;48.326;14.304;2023-06-10T01:46:33;98021.00;;;13.90
8362;BMP180;4218;48.326;14.304;2023-06-10T01:48:59;98022.00;;;13.90
8362;BMP180;4218;48.326;14.304;2023-06-10T01:51:24;98030.00;;;14.10
8362;BMP180;4218;48.326;14.304;2023-06-10T01:53:50;98027.00;;;14.10
8362;BMP180;4218;48.326;14.304;2023-06-10T01:56:15;98028.00;;;14.00
8362;BMP180;4218;48.326;14.304;2023-06-10T01:58:44;98025.00;;;14.00
8362;BMP180;4218;48.326;14.304;2023-06-10T02:01:10;98026.00;;;13.90
8362;BMP180;4218;48.326;14.304;2023-06-10T02:03:35;98023.00;;;13.80
8362;BMP180;4218;48.326;14.304;2023-06-10T02:06:00;98026.00;;;13.70
8362;BMP180;4218;48.326;14.304;2023-06-10T02:08:26;98023.00;;;13.70
8362;BMP180;4218;48.326;14.304;2023-06-10T02:10:53;98026.00;;;13.70
8362;BMP180;4218;48.326;14.304;2023-06-10T02:13:18;98025.00;;;13.70
8362;BMP180;4218;48.326;14.304;2023-06-10T02:15:43;98025.00;;;13.80
8362;BMP180;4218;48.326;14.304;2023-06-10T02:18:09;98030.00;;;13.80
8362;BMP180;4218;48.326;14.304;2023-06-10T02:20:37;98032.00;;;13.90
8362;BMP180;4218;48.326;14.304;2023-06-10T02:23:02;98030.00;;;14.00
8362;BMP180;4218;48.326;14.304;2023-06-10T02:25:28;98030.00;;;13.60
8362;BMP180;4218;48.326;14.304;2023-06-10T02:27:53;98025.00;;;13.80
8362;BMP180;4218;48.326;14.304;2023-06-10T02:30:19;98023.00;;;13.80
8362;BMP180;4218;48.326;14.304;2023-06-10T02:32:44;98018.00;;;13.50
8362;BMP180;4218;48.326;14.304;2023-06-10T02:35:16;98028.00;;;13.70
8362;BMP180;4218;48.326;14.304;2023-06-10T02:37:42;98023.00;;;13.60
8362;BMP180;4218;48.326;14.304;2023-06-10T02:40:08;98024.00;;;13.60
8362;BMP180;4218;48.326;14.304;2023-06-10T02:42:34;98034.00;;;13.80
8362;BMP180;4218;48.326;14.304;2023-06-10T02:45:00;98028.00;;;13.60
8362;BMP180;4218;48.326;14.304;2023-06-10T02:47:26;98035.00;;;13.40
8362;BMP180;4218;48.326;14.304;2023-06-10T02:49:51;98046.00;;;13.40
8362;BMP180;4218;48.326;14.304;2023-06-10T02:52:17;98039.00;;;13.40
8362;BMP180;4218;48.326;14.304;2023-06-10T02:54:42;98041.00;;;13.30
8362;BMP180;4218;48.326;14.304;2023-06-10T02:57:07;98050.00;;;13.30
8362;BMP180;4218;48.326;14.304;2023-06-10T02:59:33;98063.00;;;13.30
8362;BMP180;4218;48.326;14.304;2023-06-10T03:01:59;98054.00;;;13.50
8362;BMP180;4218;48.326;14.304;2023-06-10T03:04:26;98065.00;;;13.40
8362;BMP180;4218;48.326;14.304;2023-06-10T03:06:54;98067.00;;;13.40
8362;BMP180;4218;48.326;14.304;2023-06-10T03:09:19;98068.00;;;13.50
8362;BMP180;4218;48.326;14.304;2023-06-10T03:11:45;98065.00;;;13.40
8362;BMP180;4218;48.326;14.304;2023-06-10T03:14:10;98064.00;;;13.30
8362;BMP180;4218;48.326;14.304;2023-06-10T03:16:36;98066.00;;;13.20
8362;BMP180;4218;48.326;14.304;2023-06-10T03:19:06;98069.00;;;13.30
8362;BMP180;4218;48.326;14.304;2023-06-10T03:21:31;98067.00;;;13.30
8362;BMP180;4218;48.326;14.304;2023-06-10T03:23:56;98068.00;;;13.30
8362;BMP180;4218;48.326;14.304;2023-06-10T03:26:22;98079.00;;;13.20
8362;BMP180;4218;48.326;14.304;2023-06-10T03:28:47;98068.00;;;13.20
8362;BMP180;4218;48.326;14.304;2023-06-10T03:31:14;98071.00;;;13.30
8362;BMP180;4218;48.326;14.304;2023-06-10T03:33:42;98092.00;;;13.40
8362;BMP180;4218;48.326;14.304;2023-06-10T03:36:07;98086.00;;;13.30
8362;BMP180;4218;48.326;14.304;2023-06-10T03:38:33;98092.00;;;13.20
8362;BMP180;4218;48.326;14.304;2023-06-10T03:40:59;98092.00;;;13.20
8362;BMP180;4218;48.326;14.304;2023-06-10T03:43:25;98093.00;;;13.20
8362;BMP180;4218;48.326;14.304;2023-06-10T03:45:50;98100.00;;;13.30
8362;BMP180;4218;48.326;14.304;2023-06-10T03:48:16;98099.00;;;13.30
8362;BMP180;4218;48.326;14.304;2023-06-10T03:50:41;98102.00;;;13.30
8362;BMP180;4218;48.326;14.304;2023-06-10T03:53:07;98092.00;;;13.40
8362;BMP180;4218;48.326;14.304;2023-06-10T03:55:32;98097.00;;;13.50
8362;BMP180;4218;48.326;14.304;2023-06-10T03:57:58;98099.00;;;13.60
8362;BMP180;4218;48.326;14.304;2023-06-10T04:00:23;98096.00;;;13.70
8362;BMP180;4218;48.326;14.304;2023-06-10T04:02:50;98107.00;;;13.80
8362;BMP180;4218;48.326;14.304;2023-06-10T04:05:17;98105.00;;;13.90
8362;BMP180;4218;48.326;14.304;2023-06-10T04:07:43;98104.00;;;14.00
8362;BMP180;4218;48.326;14.304;2023-06-10T04:10:12;98104.00;;;14.10
8362;BMP180;4218;48.326;14.304;2023-06-10T04:12:38;98114.00;;;14.20
8362;BMP180;4218;48.326;14.304;2023-06-10T04:15:04;98108.00;;;14.20
8362;BMP180;4218;48.326;14.304;2023-06-10T04:17:30;98115.00;;;14.30
8362;BMP180;4218;48.326;14.304;2023-06-10T04:19:56;98121.00;;;14.50
8362;BMP180;4218;48.326;14.304;2023-06-10T04:22:21;98122.00;;;14.70
8362;BMP180;4218;48.326;14.304;2023-06-10T04:24:47;98126.00;;;14.90
8362;BMP180;4218;48.326;14.304;2023-06-10T04:27:13;98125.00;;;14.90
8362;BMP180;4218;48.326;14.304;2023-06-10T04:29:38;98123.00;;;15.00
8362;BMP180;4218;48.326;14.304;2023-06-10T04:32:04;98120.00;;;15.20
8362;BMP180;4218;48.326;14.304;2023-06-10T04:34:36;98127.00;;;15.20
8362;BMP180;4218;48.326;14.304;2023-06-10T04:37:01;98129.00;;;15.30
8362;BMP180;4218;48.326;14.304;2023-06-10T04:39:27;98128.00;;;15.30
8362;BMP180;4218;48.326;14.304;2023-06-10T04:41:52;98130.00;;;15.30
8362;BMP180;4218;48.326;14.304;2023-06-10T04:44:18;98120.00;;;15.30
8362;BMP180;4218;48.326;14.304;2023-06-10T04:46:43;98116.00;;;15.30
8362;BMP180;4218;48.326;14.304;2023-06-10T04:49:09;98121.00;;;15.30
8362;BMP180;4218;48.326;14.304;2023-06-10T04:51:34;98120.00;;;15.30
8362;BMP180;4218;48.326;14.304;2023-06-10T04:54:00;98118.00;;;15.50
8362;BMP180;4218;48.326;14.304;2023-06-10T04:56:29;98111.00;;;15.50
8362;BMP180;4218;48.326;14.304;2023-06-10T04:58:56;98114.00;;;15.50
8362;BMP180;4218;48.326;14.304;2023-06-10T05:01:22;98121.00;;;15.50
8362;BMP180;4218;48.326;14.304;2023-06-10T05:03:47;98107.00;;;15.60
8362;BMP180;4218;48.326;14.304;2023-06-10T05:06:15;98109.00;;;15.60
8362;BMP180;4218;48.326;14.304;2023-06-10T05:08:40;98117.00;;;15.70
8362;BMP180;4218;48.326;14.304;2023-06-10T05:11:06;98114.00;;;15.90
8362;BMP180;4218;48.326;14.304;2023-06-10T05:13:31;98110.00;;;15.90
8362;BMP180;4218;48.326;14.304;2023-06-10T05:15:57;98110.00;;;16.00
8362;BMP180;4218;48.326;14.304;2023-06-10T05:18:22;98106.00;;;16.10
8362;BMP180;4218;48.326;14.304;2023-06-10T05:20:48;98111.00;;;16.20
8362;BMP180;4218;48.326;14.304;2023-06-10T05:23:14;98103.00;;;16.30
8362;BMP180;4218;48.326;14.304;2023-06-10T05:25:40;98107.00;;;16.50
8362;BMP180;4218;48.326;14.304;2023-06-10T05:28:06;98105.00;;;16.60
8362;BMP180;4218;48.326;14.304;2023-06-10T05:30:35;98112.00;;;16.70
8362;BMP180;4218;48.326;14.304;2023-06-10T05:33:00;232397.00;;;235.00
8362;BMP180;4218;48.326;14.304;2023-06-10T05:35:25;232397.00;;;235.00
8362;BMP180;4218;48.326;14.304;2023-06-10T05:37:51;232397.00;;;235.00
8362;BMP180;4218;48.326;14.304;2023-06-10T05:40:16;232397.00;;;235.00
8362;BMP180;4218;48.326;14.304;2023-06-10T05:42:41;232397.00;;;235.00
8362;BMP180;4218;48.326;14.304;2023-06-10T05:45:07;232397.00;;;235.00
8362;BMP180;4218;48.326;14.304;2023-06-10T05:47:33;232397.00;;;235.00
8362;BMP180;4218;48.326;14.304;2023-06-10T05:49:58;232397.00;;;235.00
8362;BMP180;4218;48.326;14.304;2023-06-10T05:52:23;232397.00;;;235.00
8362;BMP180;4218;48.326;14.304;2023-06-10T05:54:50;232397.00;;;235.00
8362;BMP180;4218;48.326;14.304;2023-06-10T05:57:19;232397.00;;;235.00
8362;BMP180;4218;48.326;14.304;2023-06-10T05:59:45;232397.00;;;235.00
8362;BMP180;4218;48.326;14.304;2023-06-10T06:02:17;232397.00;;;235.00
8362;BMP180;4218;48.326;14.304;2023-06-10T06:04:43;232397.00;;;235.00
8362;BMP180;4218;48.326;14.304;2023-06-10T06:07:08;232397.00;;;235.00
8362;BMP180;4218;48.326;14.304;2023-06-10T06:09:34;232397.00;;;235.00
8362;BMP180;4218;48.326;14.304;2023-06-10T06:11:59;232397.00;;;235.00
8362;BMP180;4218;48.326;14.304;2023-06-10T06:14:25;232397.00;;;235.00
8362;BMP180;4218;48.326;14.304;2023-06-10T06:16:50;232397.00;;;235.00
8362;BMP180;4218;48.326;14.304;2023-06-10T06:19:15;232397.00;;;235.00
8362;BMP180;4218;48.326;14.304;2023-06-10T06:21:41;232397.00;;;235.00
8362;BMP180;4218;48.326;14.304;2023-06-10T06:24:06;232397.00;;;235.00
8362;BMP180;4218;48.326;14.304;2023-06-10T06:26:32;232397.00;;;235.00
8362;BMP180;4218;48.326;14.304;2023-06-10T06:28:57;232397.00;;;235.00
8362;BMP180;4218;48.326;14.304;2023-06-10T06:31:22;232397.00;;;235.00
8362;BMP180;4218;48.326;14.304;2023-06-10T06:33:48;232397.00;;;235.00
8362;BMP180;4218;48.326;14.304;2023-06-10T06:36:13;232397.00;;;235.00
8362;BMP180;4218;48.326;14.304;2023-06-10T06:38:38;232397.00;;;235.00
8362;BMP180;4218;48.326;14.304;2023-06-10T06:41:04;232397.00;;;235.00
8362;BMP180;4218;48.326;14.304;2023-06-10T06:43:31;232397.00;;;235.00
8362;BMP180;4218;48.326;14.304;2023-06-10T06:45:57;232397.00;;;235.00
8362;BMP180;4218;48.326;14.304;2023-06-10T06:48:23;232397.00;;;235.00
8362;BMP180;4218;48.326;14.304;2023-06-10T06:50:48;232397.00;;;235.00
8362;BMP180;4218;48.326;14.304;2023-06-10T06:53:14;232397.00;;;235.00
8362;BMP180;4218;48.326;14.304;2023-06-10T06:55:39;232397.00;;;235.00
8362;BMP180;4218;48.326;14.304;2023-06-10T06:58:05;232397.00;;;235.00
8362;BMP180;4218;48.326;14.304;2023-06-10T07:00:31;232397.00;;;235.00
8362;BMP180;4218;48.326;14.304;2023-06-10T07:02:56;232397.00;;;235.00
8362;BMP180;4218;48.326;14.304;2023-06-10T07:05:22;232397.00;;;235.00
8362;BMP180;4218;48.326;14.304;2023-06-10T07:07:48;232397.00;;;235.00
8362;BMP180;4218;48.326;14.304;2023-06-10T07:10:13;232397.00;;;235.00
8362;BMP180;4218;48.326;14.304;2023-06-10T07:12:40;232397.00;;;235.00
8362;BMP180;4218;48.326;14.304;2023-06-10T07:15:05;232397.00;;;235.00
8362;BMP180;4218;48.326;14.304;2023-06-10T07:17:31;232397.00;;;235.00
8362;BMP180;4218;48.326;14.304;2023-06-10T07:19:56;232397.00;;;235.00
8362;BMP180;4218;48.326;14.304;2023-06-10T07:22:22;232397.00;;;235.00
8362;BMP180;4218;48.326;14.304;2023-06-10T07:24:47;232397.00;;;235.00
8362;BMP180;4218;48.326;14.304;2023-06-10T07:27:13;232397.00;;;235.00
8362;BMP180;4218;48.326;14.304;2023-06-10T07:29:38;232397.00;;;235.00
8362;BMP180;4218;48.326;14.304;2023-06-10T07:32:04;232397.00;;;235.00
8362;BMP180;4218;48.326;14.304;2023-06-10T07:34:29;232397.00;;;235.00
8362;BMP180;4218;48.326;14.304;2023-06-10T07:36:54;232397.00;;;235.00
8362;BMP180;4218;48.326;14.304;2023-06-10T07:39:20;232397.00;;;235.00
8362;BMP180;4218;48.326;14.304;2023-06-10T07:41:45;232397.00;;;235.00
8362;BMP180;4218;48.326;14.304;2023-06-10T07:44:11;232397.00;;;235.00
8362;BMP180;4218;48.326;14.304;2023-06-10T07:46:36;232397.00;;;235.00
8362;BMP180;4218;48.326;14.304;2023-06-10T07:49:01;232397.00;;;235.00
8362;BMP180;4218;48.326;14.304;2023-06-10T07:51:27;232397.00;;;235.00
8362;BMP180;4218;48.326;14.304;2023-06-10T07:53:52;232397.00;;;235.00
8362;BMP180;4218;48.326;14.304;2023-06-10T07:56:18;232397.00;;;235.00
8362;BMP180;4218;48.326;14.304;2023-06-10T07:58:43;232397.00;;;235.00
8362;BMP180;4218;48.326;14.304;2023-06-10T08:01:09;232397.00;;;235.00
8362;BMP180;4218;48.326;14.304;2023-06-10T08:03:34;232397.00;;;235.00
8362;BMP180;4218;48.326;14.304;2023-06-10T08:05:59;232397.00;;;235.00
8362;BMP180;4218;48.326;14.304;2023-06-10T08:08:25;232397.00;;;235.00
8362;BMP180;4218;48.326;14.304;2023-06-10T08:10:50;232397.00;;;235.00
8362;BMP180;4218;48.326;14.304;2023-06-10T08:13:15;232397.00;;;235.00
8362;BMP180;4218;48.326;14.304;2023-06-10T08:15:41;232397.00;;;235.00
8362;BMP180;4218;48.326;14.304;2023-06-10T08:18:06;232397.00;;;235.00
8362;BMP180;4218;48.326;14.304;2023-06-10T08:20:32;232397.00;;;235.00
8362;BMP180;4218;48.326;14.304;2023-06-10T08:22:57;232397.00;;;235.00
8362;BMP180;4218;48.326;14.304;2023-06-10T08:25:23;232397.00;;;235.00
8362;BMP180;4218;48.326;14.304;2023-06-10T08:27:48;232397.00;;;235.00
8362;BMP180;4218;48.326;14.304;2023-06-10T08:30:14;232397.00;;;235.00
8362;BMP180;4218;48.326;14.304;2023-06-10T08:32:39;232397.00;;;235.00
8362;BMP180;4218;48.326;14.304;2023-06-10T08:35:05;232397.00;;;235.00
8362;BMP180;4218;48.326;14.304;2023-06-10T08:37:30;232397.00;;;235.00
8362;BMP180;4218;48.326;14.304;2023-06-10T08:39:56;232397.00;;;235.00
8362;BMP180;4218;48.326;14.304;2023-06-10T08:42:40;232397.00;;;235.00
8362;BMP180;4218;48.326;14.304;2023-06-10T08:45:12;232397.00;;;235.00
8362;BMP180;4218;48.326;14.304;2023-06-10T08:47:42;232397.00;;;235.00
8362;BMP180;4218;48.326;14.304;2023-06-10T08:50:09;232397.00;;;235.00
8362;BMP180;4218;48.326;14.304;2023-06-10T08:52:36;232397.00;;;235.00
8362;BMP180;4218;48.326;14.304;2023-06-10T08:55:11;232397.00;;;235.00
8362;BMP180;4218;48.326;14.304;2023-06-10T08:57:36;232397.00;;;235.00
8362;BMP180;4218;48.326;14.304;2023-06-10T09:00:03;232397.00;;;235.00
8362;BMP180;4218;48.326;14.304;2023-06-10T09:02:31;232397.00;;;235.00
8362;BMP180;4218;48.326;14.304;2023-06-10T09:04:56;232397.00;;;235.00
8362;BMP180;4218;48.326;14.304;2023-06-10T09:07:22;232397.00;;;235.00
8362;BMP180;4218;48.326;14.304;2023-06-10T09:09:48;232397.00;;;235.00
8362;BMP180;4218;48.326;14.304;2023-06-10T09:12:14;232397.00;;;235.00
8362;BMP180;4218;48.326;14.304;2023-06-10T09:14:41;232397.00;;;235.00
8362;BMP180;4218;48.326;14.304;2023-06-10T09:17:06;232397.00;;;235.00
8362;BMP180;4218;48.326;14.304;2023-06-10T09:19:32;232397.00;;;235.00
8362;BMP180;4218;48.326;14.304;2023-06-10T09:21:58;232397.00;;;235.00
8362;BMP180;4218;48.326;14.304;2023-06-10T09:24:24;232397.00;;;235.00
8362;BMP180;4218;48.326;14.304;2023-06-10T09:26:50;232397.00;;;235.00
8362;BMP180;4218;48.326;14.304;2023-06-10T09:29:16;232397.00;;;235.00
8362;BMP180;4218;48.326;14.304;2023-06-10T09:31:43;232397.00;;;235.00
8362;BMP180;4218;48.326;14.304;2023-06-10T09:36:39;232397.00;;;235.00
8362;BMP180;4218;48.326;14.304;2023-06-10T09:39:05;232397.00;;;235.00
8362;BMP180;4218;48.326;14.304;2023-06-10T09:41:41;232397.00;;;235.00
8362;BMP180;4218;48.326;14.304;2023-06-10T09:44:14;232397.00;;;235.00
8362;BMP180;4218;48.326;14.304;2023-06-10T09:46:40;232397.00;;;235.00
8362;BMP180;4218;48.326;14.304;2023-06-10T09:49:06;232397.00;;;235.00
8362;BMP180;4218;48.326;14.304;2023-06-10T09:51:32;232397.00;;;235.00
8362;BMP180;4218;48.326;14.304;2023-06-10T09:53:58;232397.00;;;235.00
8362;BMP180;4218;48.326;14.304;2023-06-10T09:56:34;232397.00;;;235.00
8362;BMP180;4218;48.326;14.304;2023-06-10T09:59:00;232397.00;;;235.00
8362;BMP180;4218;48.326;14.304;2023-06-10T10:01:26;232397.00;;;235.00
8362;BMP180;4218;48.326;14.304;2023-06-10T10:03:51;232397.00;;;235.00
8362;BMP180;4218;48.326;14.304;2023-06-10T10:06:18;232397.00;;;235.00
8362;BMP180;4218;48.326;14.304;2023-06-10T10:08:49;232397.00;;;235.00
8362;BMP180;4218;48.326;14.304;2023-06-10T10:11:17;232397.00;;;235.00
8362;BMP180;4218;48.326;14.304;2023-06-10T10:13:45;232397.00;;;235.00
8362;BMP180;4218;48.326;14.304;2023-06-10T10:16:14;232397.00;;;235.00
8362;BMP180;4218;48.326;14.304;2023-06-10T10:18:43;232397.00;;;235.00
8362;BMP180;4218;48.326;14.304;2023-06-10T10:21:15;232397.00;;;235.00
8362;BMP180;4218;48.326;14.304;2023-06-10T10:23:53;232397.00;;;235.00
8362;BMP180;4218;48.326;14.304;2023-06-10T10:26:21;232397.00;;;235.00
8362;BMP180;4218;48.326;14.304;2023-06-10T10:29:17;232397.00;;;235.00
8362;BMP180;4218;48.326;14.304;2023-06-10T10:31:45;232397.00;;;235.00
8362;BMP180;4218;48.326;14.304;2023-06-10T10:34:17;232397.00;;;235.00
8362;BMP180;4218;48.326;14.304;2023-06-10T10:36:45;232397.00;;;235.00
8362;BMP180;4218;48.326;14.304;2023-06-10T10:39:11;232397.00;;;235.00
8362;BMP180;4218;48.326;14.304;2023-06-10T10:41:37;232397.00;;;235.00
8362;BMP180;4218;48.326;14.304;2023-06-10T10:44:05;232397.00;;;235.00
8362;BMP180;4218;48.326;14.304;2023-06-10T10:46:44;232397.00;;;235.00
8362;BMP180;4218;48.326;14.304;2023-06-10T10:49:12;232397.00;;;235.00
8362;BMP180;4218;48.326;14.304;2023-06-10T10:51:54;232397.00;;;235.00
8362;BMP180;4218;48.326;14.304;2023-06-10T10:54:36;232397.00;;;235.00
8362;BMP180;4218;48.326;14.304;2023-06-10T10:57:14;232397.00;;;235.00
8362;BMP180;4218;48.326;14.304;2023-06-10T11:04:58;232397.00;;;235.00
8362;BMP180;4218;48.326;14.304;2023-06-10T11:07:25;232397.00;;;235.00
8362;BMP180;4218;48.326;14.304;2023-06-10T11:12:23;232397.00;;;235.00
8362;BMP180;4218;48.326;14.304;2023-06-10T11:14:54;232397.00;;;235.00
8362;BMP180;4218;48.326;14.304;2023-06-10T11:17:20;232397.00;;;235.00
8362;BMP180;4218;48.326;14.304;2023-06-10T11:19:46;232397.00;;;235.00
8362;BMP180;4218;48.326;14.304;2023-06-10T11:22:16;232397.00;;;235.00
8362;BMP180;4218;48.326;14.304;2023-06-10T11:24:50;232397.00;;;235.00
8362;BMP180;4218;48.326;14.304;2023-06-10T11:32:33;232397.00;;;235.00
8362;BMP180;4218;48.326;14.304;2023-06-10T11:35:02;232397.00;;;235.00
8362;BMP180;4218;48.326;14.304;2023-06-10T11:37:28;232397.00;;;235.00
8362;BMP180;4218;48.326;14.304;2023-06-10T11:39:54;232397.00;;;235.00
8362;BMP180;4218;48.326;14.304;2023-06-10T11:42:20;232397.00;;;235.00
8362;BMP180;4218;48.326;14.304;2023-06-10T11:44:53;232397.00;;;235.00
8362;BMP180;4218;48.326;14.304;2023-06-10T11:47:20;232397.00;;;235.00
8362;BMP180;4218;48.326;14.304;2023-06-10T11:49:49;232397.00;;;235.00
8362;BMP180;4218;48.326;14.304;2023-06-10T11:52:26;232397.00;;;235.00
8362;BMP180;4218;48.326;14.304;2023-06-10T11:54:55;232397.00;;;235.00
8362;BMP180;4218;48.326;14.304;2023-06-10T11:57:21;232397.00;;;235.00
8362;BMP180;4218;48.326;14.304;2023-06-10T11:59:46;232397.00;;;235.00
8362;BMP180;4218;48.326;14.304;2023-06-10T12:02:18;232397.00;;;235.00
8362;BMP180;4218;48.326;14.304;2023-06-10T12:04:44;232397.00;;;235.00
8362;BMP180;4218;48.326;14.304;2023-06-10T12:07:17;232397.00;;;235.00
8362;BMP180;4218;48.326;14.304;2023-06-10T12:09:42;232397.00;;;235.00
8362;BMP180;4218;48.326;14.304;2023-06-10T12:12:08;232397.00;;;235.00
8362;BMP180;4218;48.326;14.304;2023-06-10T12:17:35;232397.00;;;235.00
8362;BMP180;4218;48.326;14.304;2023-06-10T12:20:08;232397.00;;;235.00
8362;BMP180;4218;48.326;14.304;2023-06-10T12:22:42;232397.00;;;235.00
8362;BMP180;4218;48.326;14.304;2023-06-10T12:25:08;232397.00;;;235.00
8362;BMP180;4218;48.326;14.304;2023-06-10T12:27:35;232397.00;;;235.00
8362;BMP180;4218;48.326;14.304;2023-06-10T12:30:03;232397.00;;;235.00
8362;BMP180;4218;48.326;14.304;2023-06-10T12:32:55;232397.00;;;235.00
8362;BMP180;4218;48.326;14.304;2023-06-10T12:35:24;232397.00;;;235.00
8362;BMP180;4218;48.326;14.304;2023-06-10T12:38:01;232397.00;;;235.00
8362;BMP180;4218;48.326;14.304;2023-06-10T12:42:54;232397.00;;;235.00
8362;BMP180;4218;48.326;14.304;2023-06-10T12:45:31;232397.00;;;235.00
8362;BMP180;4218;48.326;14.304;2023-06-10T12:48:22;232397.00;;;235.00
8362;BMP180;4218;48.326;14.304;2023-06-10T12:50:55;232397.00;;;235.00
8362;BMP180;4218;48.326;14.304;2023-06-10T12:53:22;232397.00;;;235.00
8362;BMP180;4218;48.326;14.304;2023-06-10T12:55:49;232397.00;;;235.00
8362;BMP180;4218;48.326;14.304;2023-06-10T12:58:14;232397.00;;;235.00
8362;BMP180;4218;48.326;14.304;2023-06-10T13:00:40;232397.00;;;235.00
8362;BMP180;4218;48.326;14.304;2023-06-10T13:03:08;232397.00;;;235.00
8362;BMP180;4218;48.326;14.304;2023-06-10T13:05:35;232397.00;;;235.00
8362;BMP180;4218;48.326;14.304;2023-06-10T13:08:02;232397.00;;;235.00
8362;BMP180;4218;48.326;14.304;2023-06-10T13:10:28;232397.00;;;235.00
8362;BMP180;4218;48.326;14.304;2023-06-10T13:12:53;232397.00;;;235.00
8362;BMP180;4218;48.326;14.304;2023-06-10T13:15:22;232397.00;;;235.00
8362;BMP180;4218;48.326;14.304;2023-06-10T13:17:47;232397.00;;;235.00
8362;BMP180;4218;48.326;14.304;2023-06-10T13:20:14;232397.00;;;235.00
8362;BMP180;4218;48.326;14.304;2023-06-10T13:22:41;232397.00;;;235.00
8362;BMP180;4218;48.326;14.304;2023-06-10T13:25:07;232397.00;;;235.00
8362;BMP180;4218;48.326;14.304;2023-06-10T13:27:33;232397.00;;;235.00
8362;BMP180;4218;48.326;14.304;2023-06-10T13:29:59;232397.00;;;235.00
8362;BMP180;4218;48.326;14.304;2023-06-10T13:32:27;232397.00;;;235.00
8362;BMP180;4218;48.326;14.304;2023-06-10T13:34:53;232397.00;;;235.00
8362;BMP180;4218;48.326;14.304;2023-06-10T13:37:22;232397.00;;;235.00
8362;BMP180;4218;48.326;14.304;2023-06-10T13:39:47;232397.00;;;235.00
8362;BMP180;4218;48.326;14.304;2023-06-10T13:42:18;232397.00;;;235.00
8362;BMP180;4218;48.326;14.304;2023-06-10T13:44:44;232397.00;;;235.00
8362;BMP180;4218;48.326;14.304;2023-06-10T13:47:09;232397.00;;;235.00
8362;BMP180;4218;48.326;14.304;2023-06-10T13:49:35;232397.00;;;235.00
8362;BMP180;4218;48.326;14.304;2023-06-10T13:52:01;232397.00;;;235.00
8362;BMP180;4218;48.326;14.304;2023-06-10T13:54:27;232397.00;;;235.00
8362;BMP180;4218;48.326;14.304;2023-06-10T13:56:52;232397.00;;;235.00
8362;BMP180;4218;48.326;14.304;2023-06-10T13:59:19;232397.00;;;235.00
8362;BMP180;4218;48.326;14.304;2023-06-10T14:01:44;232397.00;;;235.00
8362;BMP180;4218;48.326;14.304;2023-06-10T14:04:10;232397.00;;;235.00
8362;BMP180;4218;48.326;14.304;2023-06-10T14:06:35;232397.00;;;235.00
8362;BMP180;4218;48.326;14.304;2023-06-10T14:09:01;232397.00;;;235.00
8362;BMP180;4218;48.326;14.304;2023-06-10T14:11:26;232397.00;;;235.00
8362;BMP180;4218;48.326;14.304;2023-06-10T14:13:51;232397.00;;;235.00
8362;BMP180;4218;48.326;14.304;2023-06-10T14:16:17;232397.00;;;235.00
8362;BMP180;4218;48.326;14.304;2023-06-10T14:18:42;232397.00;;;235.00
8362;BMP180;4218;48.326;14.304;2023-06-10T14:21:08;232397.00;;;235.00
8362;BMP180;4218;48.326;14.304;2023-06-10T14:23:33;232397.00;;;235.00
8362;BMP180;4218;48.326;14.304;2023-06-10T14:25:59;232397.00;;;235.00
8362;BMP180;4218;48.326;14.304;2023-06-10T14:28:24;232397.00;;;235.00